Time;durP1;ratioP1;P1;durP2;ratioP2;P2;SDS_P1;SDS_P2;PMS_P1;PMS_P2;Temp;Humidity;BMP_temperature;BMP_pressure;BME280_temperature;BME280_humidity;BME280_pressure;Samples;Min_cycle;Max_cycle;Signal;HPM_P1;HPM_P2
2022/11/25 00:00:35;;;;;;;1.33;1.00;;;12.70;61.40;;;;;;5108340;27;45276;-71
2022/11/25 00:03:02;;;;;;;1.52;1.20;;;12.70;61.40;;;;;;5108386;27;45406;-71
2022/11/25 00:05:29;;;;;;;2.38;1.20;;;12.70;61.40;;;;;;5108566;27;45303;-71
2022/11/25 00:07:55;;;;;;;2.92;1.00;;;12.70;61.40;;;;;;5107935;27;46705;-71
2022/11/25 00:10:22;;;;;;;2.05;1.25;;;12.60;61.30;;;;;;5107906;27;45206;-71
2022/11/25 00:12:49;;;;;;;2.13;1.10;;;12.60;61.80;;;;;;5108270;27;45355;-71
2022/11/25 00:15:16;;;;;;;3.85;1.15;;;12.60;61.40;;;;;;5108235;27;45375;-71
2022/11/25 00:17:44;;;;;;;2.05;1.15;;;12.60;61.40;;;;;;5107835;27;46741;-71
2022/11/25 00:20:11;;;;;;;2.38;1.23;;;12.60;61.40;;;;;;5096287;27;45196;-71
2022/11/25 00:22:38;;;;;;;2.30;1.58;;;12.60;61.50;;;;;;5087517;28;45193;-70
2022/11/25 00:25:06;;;;;;;4.82;1.13;;;12.60;61.50;;;;;;5087877;28;45332;-71
2022/11/25 00:27:33;;;;;;;1.95;1.13;;;12.60;61.50;;;;;;5087185;28;46571;-71
2022/11/25 00:29:59;;;;;;;2.50;1.17;;;12.60;61.50;;;;;;5087374;28;45197;-72
2022/11/25 00:32:26;;;;;;;1.38;1.27;;;12.60;61.50;;;;;;5087330;28;45253;-71
2022/11/25 00:34:55;;;;;;;1.27;1.00;;;12.60;61.50;;;;;;5087449;28;45173;-71
2022/11/25 00:37:22;;;;;;;2.42;1.10;;;12.60;61.50;;;;;;5087048;28;46793;-71
2022/11/25 00:39:49;;;;;;;2.13;1.63;;;12.60;61.50;;;;;;5087147;28;45337;-71
2022/11/25 00:45:06;;;;;;;2.65;1.50;;;12.60;61.60;;;;;;5066257;28;45451;-71
2022/11/25 00:47:33;;;;;;;1.98;1.10;;;12.50;61.50;;;;;;5103841;27;45327;-71
2022/11/25 00:50:01;;;;;;;3.08;1.35;;;12.50;61.50;;;;;;5107406;27;45205;-70
2022/11/25 00:52:28;;;;;;;1.20;1.05;;;12.50;61.60;;;;;;5107682;27;45220;-71
2022/11/25 00:54:55;;;;;;;1.98;1.00;;;12.50;61.60;;;;;;5107576;27;45258;-72
2022/11/25 00:57:23;;;;;;;2.55;0.93;;;12.50;61.60;;;;;;5107345;27;45507;-71
2022/11/25 00:59:50;;;;;;;1.40;1.27;;;12.50;62.30;;;;;;5107190;27;45220;-71
2022/11/25 01:02:17;;;;;;;2.70;0.97;;;12.50;61.50;;;;;;5106917;27;45268;-71
2022/11/25 01:04:44;;;;;;;1.90;1.08;;;12.50;61.50;;;;;;5107302;27;45259;-72
2022/11/25 01:07:12;;;;;;;1.40;1.15;;;12.50;61.60;;;;;;5107379;27;47596;-71
2022/11/25 01:09:39;;;;;;;1.02;1.00;;;12.50;61.60;;;;;;5107370;27;45275;-71
2022/11/25 01:12:06;;;;;;;1.73;1.20;;;12.50;61.60;;;;;;5107117;27;45235;-71
2022/11/25 01:14:33;;;;;;;2.80;1.00;;;12.50;61.60;;;;;;5107443;27;45396;-71
2022/11/25 01:17:00;;;;;;;1.77;1.00;;;12.50;61.50;;;;;;5106986;27;45753;-71
2022/11/25 01:19:27;;;;;;;1.38;1.00;;;12.50;61.50;;;;;;5101538;27;45429;-71
2022/11/25 01:21:54;;;;;;;1.25;1.00;;;12.50;61.50;;;;;;5086693;28;45325;-71
2022/11/25 01:24:22;;;;;;;1.23;1.13;;;12.50;61.50;;;;;;5086762;28;45448;-71
2022/11/25 01:26:49;;;;;;;1.50;1.00;;;12.50;61.50;;;;;;5086318;28;45507;-71
2022/11/25 01:29:17;;;;;;;2.05;1.30;;;12.50;61.50;;;;;;5086413;28;45327;-71
2022/11/25 01:31:44;;;;;;;2.25;1.00;;;12.50;61.50;;;;;;5086341;28;45257;-72
2022/11/25 01:34:13;;;;;;;4.00;1.23;;;12.40;61.60;;;;;;5086644;28;45397;-71
2022/11/25 01:36:40;;;;;;;2.20;1.20;;;12.40;61.50;;;;;;5086331;28;46591;-71
2022/11/25 01:39:07;;;;;;;1.58;1.10;;;12.40;61.60;;;;;;5086197;28;45260;-71
2022/11/25 01:41:36;;;;;;;2.25;0.90;;;12.40;61.60;;;;;;5086164;28;45375;-71
2022/11/25 01:44:08;;;;;;;1.52;1.15;;;12.40;61.60;;;;;;5086335;28;45341;-71
2022/11/25 01:46:53;;;;;;;3.03;1.20;;;12.40;61.60;;;;;;5094472;27;45625;-71
2022/11/25 01:49:23;;;;;;;3.40;1.23;;;12.40;61.50;;;;;;5106304;27;45234;-71
2022/11/25 01:51:52;;;;;;;1.80;1.00;;;12.40;61.50;;;;;;5106493;27;45305;-71
2022/11/25 01:54:21;;;;;;;2.35;1.30;;;12.40;61.60;;;;;;5106911;27;45612;-71
2022/11/25 01:56:50;;;;;;;1.27;0.95;;;12.40;61.60;;;;;;5106545;27;47287;-71
2022/11/25 01:59:17;;;;;;;1.67;1.05;;;12.40;61.70;;;;;;5106518;27;45295;-71
2022/11/25 02:01:44;;;;;;;1.60;1.02;;;12.40;61.60;;;;;;5106532;27;45297;-71
2022/11/25 02:04:11;;;;;;;0.88;0.88;;;12.40;61.60;;;;;;5106784;27;45196;-71
2022/11/25 02:06:40;;;;;;;1.20;1.00;;;12.40;61.60;;;;;;5106422;27;45898;-71
2022/11/25 02:09:08;;;;;;;1.20;1.10;;;12.40;61.60;;;;;;5106368;27;45343;-71
2022/11/25 02:11:35;;;;;;;1.15;1.05;;;12.30;61.60;;;;;;5106398;27;45331;-71
2022/11/25 02:14:04;;;;;;;1.90;0.98;;;12.30;61.60;;;;;;5106468;27;45176;-71
2022/11/25 02:16:31;;;;;;;2.55;1.05;;;12.30;61.50;;;;;;5109230;27;45382;-71
2022/11/25 02:18:58;;;;;;;1.33;1.20;;;12.30;62.30;;;;;;5108656;27;45437;-71
2022/11/25 02:21:26;;;;;;;3.45;1.08;;;12.30;61.60;;;;;;5089430;28;45268;-71
2022/11/25 02:23:55;;;;;;;0.98;0.90;;;12.30;61.50;;;;;;5089614;28;45180;-71
2022/11/25 02:26:24;;;;;;;1.35;0.95;;;12.30;61.60;;;;;;5089258;28;45851;-71
2022/11/25 02:28:51;;;;;;;1.98;1.30;;;12.30;61.60;;;;;;5089341;28;45236;-71
2022/11/25 02:31:19;;;;;;;1.20;1.05;;;12.30;61.50;;;;;;5089187;28;45288;-71
2022/11/25 02:33:46;;;;;;;1.80;1.07;;;12.30;61.60;;;;;;5089445;28;45311;-71
2022/11/25 02:36:15;;;;;;;1.70;0.85;;;12.30;61.70;;;;;;5088912;28;47740;-71
2022/11/25 02:38:43;;;;;;;1.45;1.08;;;12.30;61.60;;;;;;5088911;28;45198;-71
2022/11/25 02:41:12;;;;;;;2.03;1.05;;;12.30;61.60;;;;;;5089007;28;45253;-70
2022/11/25 02:43:40;;;;;;;1.08;0.82;;;12.20;61.60;;;;;;5089390;28;45608;-71
2022/11/25 02:46:08;;;;;;;2.23;1.20;;;12.20;61.60;;;;;;5093449;27;46497;-71
2022/11/25 02:48:36;;;;;;;1.05;0.80;;;12.20;61.70;;;;;;5109570;27;44693;-71
2022/11/25 02:51:03;;;;;;;3.17;1.13;;;12.20;61.70;;;;;;5088995;28;45307;-71
2022/11/25 02:53:30;;;;;;;4.20;1.10;;;12.20;61.60;;;;;;5089207;28;45523;-71
2022/11/25 02:55:57;;;;;;;2.00;1.10;;;12.20;61.60;;;;;;5088561;28;46629;-71
2022/11/25 02:58:24;;;;;;;3.03;1.10;;;12.20;61.60;;;;;;5088924;28;45216;-71
2022/11/25 03:00:52;;;;;;;1.20;1.10;;;12.20;61.60;;;;;;5088830;28;45485;-71
2022/11/25 03:03:19;;;;;;;2.17;1.30;;;12.20;62.40;;;;;;5089117;28;45281;-71
2022/11/25 03:05:46;;;;;;;1.30;1.00;;;12.20;61.70;;;;;;5088500;28;45487;-72
2022/11/25 03:08:13;;;;;;;2.03;1.00;;;12.20;62.40;;;;;;5088630;28;45193;-71
2022/11/25 03:10:40;;;;;;;1.55;1.17;;;12.20;61.70;;;;;;5088697;28;45211;-71
2022/11/25 03:13:06;;;;;;;1.23;0.82;;;12.20;62.40;;;;;;5088815;28;45336;-71
2022/11/25 03:15:33;;;;;;;2.20;1.13;;;12.20;61.70;;;;;;5088434;28;46829;-71
2022/11/25 03:18:01;;;;;;;1.73;1.20;;;12.20;61.70;;;;;;5088585;28;45286;-71
2022/11/25 03:20:28;;;;;;;1.17;1.07;;;12.20;61.70;;;;;;5074538;28;45260;-71
2022/11/25 03:22:54;;;;;;;1.27;1.02;;;12.20;61.70;;;;;;5068160;28;45405;-71
2022/11/25 03:25:21;;;;;;;1.77;0.93;;;12.20;61.70;;;;;;5067856;28;47244;-71
2022/11/25 03:27:48;;;;;;;1.83;1.13;;;12.20;61.70;;;;;;5067809;28;45336;-71
2022/11/25 03:30:16;;;;;;;1.27;1.17;;;12.10;61.70;;;;;;5068162;28;45241;-72
2022/11/25 03:32:43;;;;;;;1.23;1.07;;;12.10;61.70;;;;;;5068300;28;45199;-71
2022/11/25 03:35:11;;;;;;;2.10;1.20;;;12.10;61.70;;;;;;5067741;28;45229;-71
2022/11/25 03:37:38;;;;;;;1.58;1.30;;;12.10;61.70;;;;;;5067829;28;45425;-70
2022/11/25 03:40:06;;;;;;;1.77;1.05;;;12.10;61.70;;;;;;5067861;28;45448;-71
2022/11/25 03:42:33;;;;;;;1.23;1.08;;;12.10;61.80;;;;;;5068246;28;45415;-71
2022/11/25 03:45:00;;;;;;;1.97;1.10;;;12.10;61.70;;;;;;5067694;28;46794;-71
2022/11/25 03:47:26;;;;;;;1.13;1.03;;;12.10;61.80;;;;;;5083362;28;45446;-71
2022/11/25 03:49:53;;;;;;;2.42;1.17;;;12.10;61.80;;;;;;5098881;27;45430;-71
2022/11/25 03:52:21;;;;;;;1.43;1.10;;;12.10;62.50;;;;;;5108786;27;45225;-71
2022/11/25 03:54:48;;;;;;;2.07;1.40;;;12.10;61.80;;;;;;5108377;27;46466;-71
2022/11/25 03:57:15;;;;;;;1.30;1.20;;;12.10;61.80;;;;;;5108377;27;45275;-72
2022/11/25 03:59:43;;;;;;;3.00;1.00;;;12.10;61.80;;;;;;5108540;27;45314;-71
2022/11/25 04:02:10;;;;;;;1.95;1.00;;;12.10;61.80;;;;;;5108642;27;45315;-71
2022/11/25 04:04:37;;;;;;;1.90;1.40;;;12.10;61.80;;;;;;5108043;27;45501;-71
2022/11/25 04:07:04;;;;;;;1.97;1.27;;;12.10;61.80;;;;;;5108030;27;45267;-71
2022/11/25 04:09:32;;;;;;;0.95;0.90;;;12.10;61.80;;;;;;5108241;27;45251;-71
2022/11/25 04:14:43;;;;;;;1.83;1.00;;;12.10;61.80;;;;;;5105442;27;45794;-71
2022/11/25 04:17:10;;;;;;;1.33;0.95;;;12.10;61.80;;;;;;5108199;27;45388;-71
2022/11/25 04:19:37;;;;;;;2.03;0.97;;;12.10;61.90;;;;;;5101235;27;45223;-71
2022/11/25 04:22:04;;;;;;;1.60;1.08;;;12.10;61.80;;;;;;5087705;28;45287;-71
2022/11/25 04:24:32;;;;;;;1.60;1.10;;;12.10;61.90;;;;;;5087374;28;46691;-71
2022/11/25 04:26:59;;;;;;;1.47;1.10;;;12.10;61.90;;;;;;5087371;28;45297;-71
2022/11/25 04:29:26;;;;;;;1.30;1.20;;;12.10;61.90;;;;;;5087541;28;45305;-71
2022/11/25 04:31:53;;;;;;;1.63;1.20;;;12.10;62.00;;;;;;5087435;28;45185;-71
2022/11/25 04:34:20;;;;;;;1.30;1.20;;;12.10;61.90;;;;;;5087218;28;45528;-71
2022/11/25 04:36:47;;;;;;;1.48;1.20;;;12.10;62.00;;;;;;5087068;28;45392;-71
2022/11/25 04:39:14;;;;;;;1.20;1.10;;;12.10;62.00;;;;;;5086455;28;45372;-71
2022/11/25 04:41:42;;;;;;;1.03;0.93;;;12.10;62.00;;;;;;5087330;28;45350;-71
2022/11/25 04:44:09;;;;;;;1.03;0.93;;;12.00;62.00;;;;;;5086889;28;45203;-71
2022/11/25 04:46:37;;;;;;;1.27;1.00;;;12.10;62.00;;;;;;5095807;27;45335;-70
2022/11/25 04:49:04;;;;;;;1.45;0.93;;;12.00;61.90;;;;;;5107384;27;45329;-71
2022/11/25 04:51:31;;;;;;;1.23;0.93;;;12.10;62.00;;;;;;5107674;27;45367;-71
2022/11/25 04:53:58;;;;;;;2.63;1.00;;;12.10;62.00;;;;;;5107189;27;45513;-71
2022/11/25 04:56:25;;;;;;;1.23;1.07;;;12.00;61.90;;;;;;5107391;27;45320;-71
2022/11/25 05:01:43;;;;;;;1.23;1.10;;;12.00;61.90;;;;;;5090854;27;45343;-71
2022/11/25 05:04:09;;;;;;;2.47;1.23;;;12.00;61.90;;;;;;5107304;27;45415;-71
2022/11/25 05:06:36;;;;;;;1.93;1.10;;;12.00;61.90;;;;;;5107464;27;45494;-72
2022/11/25 05:09:04;;;;;;;1.57;1.00;;;12.00;62.00;;;;;;5107309;27;45296;-71
2022/11/25 05:11:31;;;;;;;1.23;1.00;;;12.00;61.90;;;;;;5107488;27;45329;-71
2022/11/25 05:13:59;;;;;;;1.17;1.03;;;12.00;62.00;;;;;;5107139;27;46849;-71
2022/11/25 05:16:26;;;;;;;1.17;1.07;;;12.00;62.00;;;;;;5107043;27;45192;-71
2022/11/25 05:18:54;;;;;;;1.80;1.30;;;12.00;62.00;;;;;;5106654;27;45318;-71
2022/11/25 05:21:21;;;;;;;2.03;1.07;;;12.00;62.00;;;;;;5086901;28;45266;-71
2022/11/25 05:23:48;;;;;;;1.77;1.30;;;12.00;62.00;;;;;;5086365;28;45762;-71
2022/11/25 05:26:15;;;;;;;1.95;1.20;;;12.00;62.00;;;;;;5086458;28;45222;-71
2022/11/25 05:28:42;;;;;;;1.27;1.10;;;12.00;62.00;;;;;;5086442;28;45319;-71
2022/11/25 05:31:10;;;;;;;2.30;1.55;;;12.00;62.00;;;;;;5086517;28;45285;-71
2022/11/25 05:33:37;;;;;;;2.40;1.20;;;12.00;62.00;;;;;;5086321;28;46717;-71
2022/11/25 05:36:04;;;;;;;1.83;1.40;;;12.00;62.10;;;;;;5086297;28;45185;-71
2022/11/25 05:38:31;;;;;;;2.00;1.45;;;12.00;62.10;;;;;;5086473;28;45331;-71
2022/11/25 05:41:00;;;;;;;2.13;1.20;;;12.00;62.10;;;;;;5086553;28;45485;-71
2022/11/25 05:43:27;;;;;;;1.33;1.23;;;12.00;62.10;;;;;;5085989;28;46882;-71
2022/11/25 05:45:54;;;;;;;1.23;0.97;;;12.00;62.10;;;;;;5088843;27;45173;-71
2022/11/25 05:48:22;;;;;;;1.33;1.20;;;12.00;62.10;;;;;;5106943;27;45416;-71
2022/11/25 05:50:49;;;;;;;1.80;1.10;;;12.00;62.20;;;;;;5106330;27;45258;-71
2022/11/25 05:53:17;;;;;;;1.57;1.07;;;12.00;62.20;;;;;;5106526;27;46683;-72
2022/11/25 05:55:43;;;;;;;1.30;1.10;;;12.00;62.20;;;;;;5106637;27;45225;-71
2022/11/25 05:58:10;;;;;;;1.63;1.30;;;12.00;62.20;;;;;;5106857;27;45307;-71
2022/11/25 06:00:37;;;;;;;3.87;1.43;;;12.00;62.20;;;;;;5106903;27;45509;-71
2022/11/25 06:03:04;;;;;;;2.15;1.13;;;12.00;62.20;;;;;;5106365;27;46915;-71
2022/11/25 06:05:34;;;;;;;1.13;1.10;;;12.00;62.20;;;;;;5106485;27;45367;-71
2022/11/25 06:08:01;;;;;;;2.50;1.30;;;12.00;62.20;;;;;;5106611;27;45251;-71
2022/11/25 06:10:28;;;;;;;2.45;1.33;;;12.00;62.10;;;;;;5106670;27;45313;-71
2022/11/25 06:12:55;;;;;;;1.07;0.90;;;12.00;62.20;;;;;;5106350;27;45355;-71
2022/11/25 06:15:21;;;;;;;1.27;1.17;;;12.00;62.20;;;;;;5106311;27;45375;-71
2022/11/25 06:17:48;;;;;;;1.67;1.13;;;12.00;62.20;;;;;;5106673;27;45173;-71
2022/11/25 06:20:15;;;;;;;2.87;1.00;;;12.00;62.20;;;;;;5094387;27;45535;-72
2022/11/25 06:22:43;;;;;;;1.67;1.10;;;12.00;62.20;;;;;;5085704;28;45394;-71
2022/11/25 06:25:10;;;;;;;1.77;1.17;;;12.00;62.20;;;;;;5085681;28;45311;-71
2022/11/25 06:27:37;;;;;;;2.40;1.30;;;12.00;62.20;;;;;;5085614;28;45344;-71
2022/11/25 06:30:05;;;;;;;1.37;1.27;;;12.00;62.20;;;;;;5086120;28;45537;-71
2022/11/25 06:32:32;;;;;;;2.27;1.27;;;12.00;62.20;;;;;;5085618;28;47166;-71
2022/11/25 06:34:58;;;;;;;2.40;1.33;;;12.00;62.20;;;;;;5085581;28;45283;-71
2022/11/25 06:37:26;;;;;;;3.07;1.23;;;12.00;62.20;;;;;;5085539;28;45229;-71
2022/11/25 06:39:54;;;;;;;1.77;1.30;;;12.00;62.20;;;;;;5085824;28;45133;-71
2022/11/25 06:42:21;;;;;;;1.33;1.10;;;12.00;62.20;;;;;;5085231;28;45712;-71
2022/11/25 06:44:47;;;;;;;1.83;1.10;;;12.00;62.20;;;;;;5085519;28;45376;-71
2022/11/25 06:47:14;;;;;;;1.30;1.03;;;11.90;62.20;;;;;;5099758;27;45291;-71
2022/11/25 06:49:41;;;;;;;1.73;1.10;;;12.00;62.30;;;;;;5105975;27;45353;-71
2022/11/25 06:52:08;;;;;;;1.83;1.17;;;12.00;62.30;;;;;;5105692;27;46731;-71
2022/11/25 06:54:39;;;;;;;2.58;1.20;;;11.90;62.20;;;;;;5105801;27;45221;-71
2022/11/25 06:57:08;;;;;;;1.60;1.27;;;12.00;62.30;;;;;;5105820;27;45304;-71
2022/11/25 06:59:35;;;;;;;1.33;1.20;;;12.00;62.40;;;;;;5106222;27;45316;-71
2022/11/25 07:02:01;;;;;;;4.20;1.20;;;12.00;62.30;;;;;;5107908;27;45244;-71
2022/11/25 07:04:28;;;;;;;1.73;1.25;;;12.00;62.30;;;;;;5109247;27;45263;-71
2022/11/25 07:06:55;;;;;;;1.33;1.23;;;12.00;62.30;;;;;;5109416;27;45305;-71
2022/11/25 07:09:23;;;;;;;2.27;1.30;;;12.00;62.30;;;;;;5109496;27;45376;-71
2022/11/25 07:11:50;;;;;;;1.40;1.20;;;12.00;62.30;;;;;;5108657;27;45746;-72
2022/11/25 07:14:18;;;;;;;1.63;1.37;;;12.00;62.30;;;;;;5109108;27;45184;-71
2022/11/25 07:16:45;;;;;;;2.08;1.52;;;12.00;62.40;;;;;;5109202;27;45371;-71
2022/11/25 07:19:13;;;;;;;2.05;1.30;;;12.00;62.30;;;;;;5106103;27;45459;-71
2022/11/25 07:21:40;;;;;;;2.87;1.30;;;12.00;62.30;;;;;;5088198;28;46702;-71
2022/11/25 07:24:07;;;;;;;1.57;1.23;;;12.00;63.10;;;;;;5088687;28;45237;-71
2022/11/25 07:26:36;;;;;;;3.33;1.60;;;12.00;62.40;;;;;;5088473;28;45229;-71
2022/11/25 07:29:05;;;;;;;1.73;1.50;;;12.00;62.40;;;;;;5088682;28;45180;-70
2022/11/25 07:31:35;;;;;;;3.93;1.53;;;12.00;62.40;;;;;;5088130;28;45600;-71
2022/11/25 07:34:03;;;;;;;2.37;1.60;;;12.00;62.30;;;;;;5088372;28;45305;-70
2022/11/25 07:36:30;;;;;;;2.17;1.80;;;12.00;62.30;;;;;;5088250;28;45308;-70
2022/11/25 07:38:57;;;;;;;3.35;1.70;;;12.00;62.40;;;;;;5088503;28;45228;-71
2022/11/25 07:41:25;;;;;;;2.47;1.57;;;12.00;63.10;;;;;;5087902;28;45367;-70
2022/11/25 07:43:53;;;;;;;2.90;1.50;;;12.00;62.40;;;;;;5088018;28;45322;-71
2022/11/25 07:46:21;;;;;;;1.73;1.33;;;12.00;62.40;;;;;;5094637;27;45212;-71
2022/11/25 07:48:50;;;;;;;3.38;1.83;;;12.00;62.50;;;;;;5108683;27;45609;-72
2022/11/25 07:51:17;;;;;;;3.37;1.60;;;12.00;62.50;;;;;;5108213;27;46649;-71
2022/11/25 07:53:44;;;;;;;2.17;1.65;;;12.00;62.50;;;;;;5108364;27;45264;-71
2022/11/25 07:56:11;;;;;;;3.50;1.90;;;12.00;62.60;;;;;;5108386;27;45269;-71
2022/11/25 07:58:38;;;;;;;2.63;1.85;;;12.00;62.60;;;;;;5108403;27;45420;-70
2022/11/25 08:01:05;;;;;;;3.33;1.63;;;12.00;62.60;;;;;;5108114;27;45742;-70
2022/11/25 08:03:32;;;;;;;1.67;1.57;;;12.00;62.60;;;;;;5108383;27;45336;-71
2022/11/25 08:06:01;;;;;;;3.15;2.10;;;12.00;62.60;;;;;;5108413;27;45251;-71
2022/11/25 08:08:28;;;;;;;2.53;1.67;;;12.00;62.70;;;;;;5108565;27;45520;-71
2022/11/25 08:10:55;;;;;;;2.63;1.80;;;12.00;62.70;;;;;;5107991;27;46753;-71
2022/11/25 08:13:22;;;;;;;5.38;1.98;;;12.00;62.80;;;;;;5108010;27;45348;-71
2022/11/25 08:15:49;;;;;;;1.87;1.73;;;12.00;62.80;;;;;;5108045;27;45210;-71
2022/11/25 08:18:16;;;;;;;2.53;1.65;;;12.00;62.80;;;;;;5108395;27;45446;-70
2022/11/25 08:20:43;;;;;;;2.40;2.17;;;12.00;62.80;;;;;;5091506;27;46452;-69
2022/11/25 08:23:11;;;;;;;3.53;1.80;;;12.00;62.70;;;;;;5087418;28;45307;-69
2022/11/25 08:25:40;;;;;;;3.30;1.45;;;12.00;62.80;;;;;;5087379;28;45170;-69
2022/11/25 08:28:06;;;;;;;2.05;1.50;;;12.00;62.70;;;;;;5087498;28;45183;-69
2022/11/25 08:30:33;;;;;;;3.90;2.03;;;12.00;62.70;;;;;;5086998;28;45465;-69
2022/11/25 08:33:00;;;;;;;2.57;1.83;;;12.00;62.70;;;;;;5087044;28;45375;-69
2022/11/25 08:35:27;;;;;;;1.73;1.50;;;12.00;62.70;;;;;;5087108;28;45316;-69
2022/11/25 08:37:54;;;;;;;2.72;1.55;;;12.00;62.70;;;;;;5087158;28;45233;-70
2022/11/25 08:40:23;;;;;;;2.58;1.60;;;12.00;62.60;;;;;;5086639;28;46683;-71
2022/11/25 08:42:49;;;;;;;3.03;1.50;;;12.00;62.60;;;;;;5085515;28;45383;-70
2022/11/25 08:45:16;;;;;;;1.90;1.27;;;12.00;62.50;;;;;;5086917;28;45387;-70
2022/11/25 08:47:43;;;;;;;1.88;1.58;;;12.10;62.70;;;;;;5104954;27;45459;-72
2022/11/25 08:50:12;;;;;;;1.90;1.25;;;12.10;62.80;;;;;;5085512;27;45459;-75
2022/11/25 08:52:39;;;;;;;1.60;1.42;;;12.10;62.80;;;;;;5087677;28;45253;-78
2022/11/25 08:55:07;;;;;;;1.63;1.30;;;12.10;62.70;;;;;;5088022;28;45380;-73
2022/11/25 08:57:36;;;;;;;1.75;1.42;;;12.20;62.60;;;;;;5087394;28;45202;-73
2022/11/25 09:00:05;;;;;;;1.58;0.95;;;12.20;63.10;;;;;;5087035;28;45360;-76
2022/11/25 09:02:32;;;;;;;2.67;1.60;;;12.20;62.40;;;;;;5086934;28;45339;-74
2022/11/25 09:04:59;;;;;;;1.75;1.17;;;12.20;62.50;;;;;;5087525;28;45181;-73
2022/11/25 09:07:26;;;;;;;1.50;1.40;;;12.20;63.20;;;;;;5087529;28;45108;-73
2022/11/25 09:09:53;;;;;;;2.25;1.33;;;12.20;62.40;;;;;;5087434;28;47667;-73
2022/11/25 09:12:20;;;;;;;3.30;1.42;;;12.20;62.60;;;;;;5086786;28;45244;-71
2022/11/25 09:14:48;;;;;;;2.08;1.40;;;12.20;62.70;;;;;;5087089;28;45312;-71
2022/11/25 09:17:15;;;;;;;2.85;1.42;;;12.20;62.80;;;;;;5087242;28;45241;-71
2022/11/25 09:19:42;;;;;;;1.73;1.40;;;12.20;62.80;;;;;;5094142;27;47792;-71
2022/11/25 09:22:09;;;;;;;2.40;1.50;;;12.30;63.00;;;;;;5107170;27;45383;-72
2022/11/25 09:24:36;;;;;;;2.67;1.60;;;12.30;63.00;;;;;;5106585;27;45248;-71
2022/11/25 09:27:03;;;;;;;2.38;1.50;;;12.30;62.90;;;;;;5107003;27;45302;-71
2022/11/25 09:29:30;;;;;;;2.63;1.33;;;12.30;62.90;;;;;;5107054;27;45672;-73
2022/11/25 09:31:58;;;;;;;1.25;1.00;;;12.40;63.00;;;;;;5107246;27;45227;-72
2022/11/25 09:34:25;;;;;;;1.85;1.17;;;12.40;62.90;;;;;;5107271;27;45405;-72
2022/11/25 09:36:52;;;;;;;1.50;1.33;;;12.40;62.90;;;;;;5107044;27;45416;-71
2022/11/25 09:39:19;;;;;;;1.60;1.20;;;12.40;62.80;;;;;;5106996;27;47009;-72
2022/11/25 09:47:36;;;;;;;1.23;1.00;;;12.50;62.70;;;;;;5088077;27;45299;-71
2022/11/25 09:50:12;;;;;;;1.42;1.20;;;12.50;62.80;;;;;;5085842;28;46978;-72
2022/11/25 09:52:44;;;;;;;7.15;1.30;;;12.60;63.00;;;;;;5086558;28;45310;-69
2022/11/25 09:55:13;;;;;;;5.03;1.25;;;12.60;63.20;;;;;;5087639;28;45224;-73
2022/11/25 09:57:48;;;;;;;5.65;1.08;;;12.60;64.20;;;;;;5087281;28;45319;-70
2022/11/25 10:00:17;;;;;;;1.67;1.33;;;12.70;64.60;;;;;;5085671;28;46846;-71
2022/11/25 10:02:51;;;;;;;2.00;1.38;;;12.70;64.00;;;;;;5086653;28;45207;-73
2022/11/25 10:05:20;;;;;;;1.67;1.30;;;12.80;63.80;;;;;;5066508;28;45357;-71
2022/11/25 10:07:49;;;;;;;1.55;1.02;;;12.90;63.60;;;;;;5066019;28;45509;-72
2022/11/25 10:10:19;;;;;;;2.88;1.02;;;12.90;63.40;;;;;;5065703;28;45483;-72
2022/11/25 10:12:46;;;;;;;1.33;1.23;;;12.90;63.20;;;;;;5065798;28;45202;-72
2022/11/25 10:15:17;;;;;;;3.13;1.20;;;12.90;63.20;;;;;;5065785;28;45200;-71
2022/11/25 10:17:48;;;;;;;1.65;1.40;;;12.80;63.10;;;;;;5065947;28;45190;-73
2022/11/25 10:20:19;;;;;;;2.50;1.17;;;12.80;63.20;;;;;;5089610;27;45476;-72
2022/11/25 10:22:47;;;;;;;3.40;1.05;;;12.80;63.10;;;;;;5106431;27;45216;-73
2022/11/25 10:25:16;;;;;;;2.38;1.00;;;12.80;63.10;;;;;;5106733;27;45340;-73
2022/11/25 10:27:44;;;;;;;1.00;1.00;;;12.80;63.20;;;;;;5106489;27;45297;-72
2022/11/25 10:30:15;;;;;;;0.95;0.95;;;12.80;63.20;;;;;;5106215;27;46968;-73
2022/11/25 10:32:45;;;;;;;1.10;1.00;;;12.80;63.80;;;;;;5106265;27;45325;-72
2022/11/25 10:35:18;;;;;;;1.23;1.00;;;12.80;63.10;;;;;;5106274;27;45227;-73
2022/11/25 10:37:45;;;;;;;2.15;0.80;;;12.80;63.00;;;;;;5109837;27;45196;-72
2022/11/25 10:40:14;;;;;;;2.67;1.33;;;12.80;63.00;;;;;;5109529;27;46506;-72
2022/11/25 10:42:41;;;;;;;1.55;1.05;;;12.80;63.90;;;;;;5109873;27;45414;-73
2022/11/25 10:45:09;;;;;;;1.50;1.00;;;12.80;63.90;;;;;;5109660;27;45376;-72
2022/11/25 10:47:37;;;;;;;2.05;0.98;;;12.80;65.40;;;;;;5092820;27;45208;-72
2022/11/25 10:50:16;;;;;;;0.52;0.52;;;12.80;65.60;;;;;;5088615;28;45300;-73
2022/11/25 10:52:46;;;;;;;0.60;0.60;;;12.80;65.10;;;;;;5089192;28;45324;-73
2022/11/25 10:55:14;;;;;;;1.77;0.82;;;12.80;65.30;;;;;;5089477;28;45198;-73
2022/11/25 10:57:41;;;;;;;2.35;0.80;;;12.80;65.70;;;;;;5089193;28;45231;-72
2022/11/25 11:00:25;;;;;;;0.90;0.63;;;12.80;67.10;;;;;;5089044;28;46570;-73
2022/11/25 11:02:51;;;;;;;0.90;0.70;;;12.80;68.00;;;;;;5089016;28;45292;-73
2022/11/25 11:05:22;;;;;;;2.45;0.90;;;12.70;67.80;;;;;;5089261;28;45415;-72
2022/11/25 11:07:49;;;;;;;1.63;0.80;;;12.70;68.00;;;;;;5089207;28;45491;-73
2022/11/25 11:10:18;;;;;;;1.60;0.80;;;12.70;67.60;;;;;;5089083;28;45307;-73
2022/11/25 11:12:56;;;;;;;1.95;0.90;;;12.70;68.40;;;;;;5088976;28;45390;-72
2022/11/25 11:15:24;;;;;;;1.50;0.80;;;12.70;68.20;;;;;;5088953;28;45190;-73
2022/11/25 11:17:51;;;;;;;2.85;0.82;;;12.70;68.80;;;;;;5073484;28;45400;-73
2022/11/25 11:20:22;;;;;;;3.33;0.90;;;12.70;69.30;;;;;;5093189;27;45579;-73
2022/11/25 11:22:52;;;;;;;1.33;0.88;;;12.70;68.60;;;;;;5109559;27;45256;-73
2022/11/25 11:25:36;;;;;;;2.42;1.20;;;12.70;69.50;;;;;;5109334;27;45229;-73
2022/11/25 11:28:04;;;;;;;2.67;0.77;;;12.70;68.70;;;;;;5109367;27;45377;-73
2022/11/25 11:30:31;;;;;;;0.90;0.90;;;12.70;69.00;;;;;;5097675;27;46424;-73
2022/11/25 11:33:03;;;;;;;1.55;1.00;;;12.70;69.10;;;;;;5068008;28;45225;-73
2022/11/25 11:35:42;;;;;;;2.03;1.20;;;12.70;70.20;;;;;;5073673;28;45405;-73
2022/11/25 11:38:20;;;;;;;2.30;0.85;;;12.70;69.70;;;;;;5072385;28;45330;-73
2022/11/25 11:40:50;;;;;;;4.80;0.90;;;12.70;69.40;;;;;;5088072;28;45346;-72
2022/11/25 11:43:26;;;;;;;1.20;0.80;;;12.70;70.10;;;;;;5088545;28;45189;-72
2022/11/25 11:46:00;;;;;;;2.10;0.82;;;12.70;69.90;;;;;;5084184;27;45318;-72
2022/11/25 11:48:29;;;;;;;1.73;0.80;;;12.70;70.10;;;;;;5109158;27;45191;-73
2022/11/25 11:51:01;;;;;;;3.50;1.15;;;12.70;70.10;;;;;;5088128;27;46641;-72
2022/11/25 11:53:31;;;;;;;3.22;1.00;;;12.70;70.10;;;;;;5068706;28;45169;-73
2022/11/25 11:56:02;;;;;;;1.80;0.77;;;12.70;69.90;;;;;;5076057;28;45297;-73
2022/11/25 11:58:45;;;;;;;1.48;1.05;;;12.70;70.20;;;;;;5075218;28;45450;-72
2022/11/25 12:01:21;;;;;;;0.77;0.77;;;12.70;70.40;;;;;;5077716;28;46760;-72
2022/11/25 12:03:53;;;;;;;1.23;1.08;;;12.70;70.00;;;;;;5085286;28;45286;-73
2022/11/25 12:06:21;;;;;;;1.87;0.70;;;12.80;70.30;;;;;;5068899;28;45442;-74
2022/11/25 12:08:50;;;;;;;2.58;0.70;;;12.80;69.80;;;;;;5082154;28;45188;-72
2022/11/25 12:11:18;;;;;;;1.70;0.90;;;12.80;70.50;;;;;;5082805;28;46396;-73
2022/11/25 12:13:48;;;;;;;1.70;1.20;;;12.80;70.10;;;;;;5067492;28;45209;-74
2022/11/25 12:16:17;;;;;;;1.20;0.80;;;12.90;70.30;;;;;;5072415;28;45205;-72
2022/11/25 12:18:47;;;;;;;2.95;0.93;;;12.80;70.60;;;;;;5080148;28;45467;-72
2022/11/25 12:21:24;;;;;;;3.85;1.10;;;12.90;70.50;;;;;;5090711;27;45637;-72
2022/11/25 12:23:53;;;;;;;3.92;1.10;;;13.00;70.70;;;;;;5087546;28;45331;-73
2022/11/25 12:26:24;;;;;;;1.00;0.88;;;13.00;70.20;;;;;;5087252;28;45190;-74
2022/11/25 12:28:53;;;;;;;4.85;1.13;;;13.10;69.60;;;;;;5075224;28;45275;-73
2022/11/25 12:31:22;;;;;;;1.58;1.20;;;13.10;69.80;;;;;;5078995;28;45677;-73
2022/11/25 12:33:56;;;;;;;1.00;0.85;;;13.10;70.20;;;;;;5071022;28;45271;-73
2022/11/25 12:36:28;;;;;;;3.15;1.17;;;13.10;70.20;;;;;;5067384;28;45258;-73
2022/11/25 12:38:56;;;;;;;1.33;1.02;;;13.20;69.90;;;;;;5067355;28;45460;-76
2022/11/25 12:41:26;;;;;;;1.17;1.10;;;13.20;70.10;;;;;;5085314;28;45264;-73
2022/11/25 12:43:57;;;;;;;2.42;1.30;;;13.20;70.10;;;;;;5081724;28;45335;-76
2022/11/25 12:46:27;;;;;;;2.25;1.30;;;13.10;69.80;;;;;;5087050;27;45247;-75
2022/11/25 12:48:55;;;;;;;2.33;1.02;;;13.10;70.20;;;;;;5099498;27;45405;-75
2022/11/25 12:51:41;;;;;;;1.58;1.20;;;13.10;70.10;;;;;;5077321;28;47950;-74
2022/11/25 12:54:16;;;;;;;4.50;1.10;;;13.20;69.80;;;;;;5073143;28;45183;-72
2022/11/25 12:56:52;;;;;;;2.30;1.20;;;13.20;69.60;;;;;;5084692;28;45326;-75
2022/11/25 12:59:30;;;;;;;3.15;1.73;;;13.20;70.10;;;;;;5066626;28;45241;-71
2022/11/25 13:02:01;;;;;;;2.92;1.17;;;13.20;70.60;;;;;;5070258;28;45515;-74
2022/11/25 13:05:03;;;;;;;1.70;1.13;;;13.20;70.60;;;;;;5069892;28;45196;-76
2022/11/25 13:07:32;;;;;;;1.75;1.40;;;13.10;71.00;;;;;;5080197;28;45403;-75